Riverside, PA (17868)

12:24 PM EST del 22 novembre 2014 (GMT -0500)
Mahoning Township | Change Station
CLOSE
Current Station
Stazione meteo personale
Location: Danville, PA
Altitudine: 510 ft
Stazioni meteo nelle vicinanze

Alt. 510 ft 40.96 °N, 76.58 °W | Updated 7 minutes ago

Sereno
Sereno
39.3 °F
Sembra 39 °F
N
1.0
Vento Variabile Vento da SO

Oggi
Massima -- | Minima -- °F
--% Possibilità di precip.
Ieri
Massima -- | Minima -- °F
Precip. -- in
7:02 AM 4:42 PM
Luna nuova, 0% visible
Pressione 30.37 in
Visibilità 10.0 miglia
Nuvole Alcuni 7500 ft
Raffreddamento del vento 39 °F
Punto di rugiada 16 °F
Umidità 39%
Piovosità 0.00 in
Spessore del manto nevoso Non disponibile.
Raggi UV 3 fuori da 12
Polline .10 fuori da 12
Qualità dell'aria Non disponibile.
Flu Activity Non disponibile.
METAR KSEG 221653Z AUTO 17010KT 10SM FEW075 02/M11 A3034 RMK AO2 SLP282 T00171111

More Conditions Fewer Conditions

Pressione 30.37 in
Visibilità 10.0 miglia
Nuvole Alcuni 7500 ft
Raffreddamento del vento 39 °F
Punto di rugiada 16 °F
Umidità 39%
Piovosità 0.00 in
Spessore del manto nevoso Non disponibile.
Raggi UV 3 fuori da 12
Polline .10 fuori da 12
Qualità dell'aria Non disponibile.
Flu Activity Non disponibile.
METAR KSEG 221653Z AUTO 17010KT 10SM FEW075 02/M11 A3034 RMK AO2 SLP282 T00171111

More Conditions Fewer Conditions

10-Day Weather Forecast

Almanac

Astronomia

Nov. 22, 2014 Alba Tramonto
Ora attuale
Crepuscolo civile
Crepuscolo nautico
Crepuscolo astronomico
Luna
Estensione della luce visibile
Lunghezza del giorno
Tomorrow will be .
, % of the Moon is Illuminated

Gli estremi di oggi

State Highs State Lows

Community

WunderPhotos

Upload Photos

1,772,864 foto caricate!

WunderBlogs® & News

Nearby

Qualità dell'aria

  Qualità dell'aria Indice AQ Inquinante
Not available.

Profondità neve

Stazione Profondità Altitudine

Attività sismica

Città  Distanza Mag. Data & Ora
Minimo Magnitudo Mostrato è 2.5.

Temperature delle acque costiere

Località Temperatura

Stazioni meteo nelle vicinanze